Time;durP1;ratioP1;P1;durP2;ratioP2;P2;SDS_P1;SDS_P2;PMS_P1;PMS_P2;Temp;Humidity;BMP_temperature;BMP_pressure;BME280_temperature;BME280_humidity;BME280_pressure;Samples;Min_cycle;Max_cycle;Signal;HPM_P1;HPM_P2
2022/05/26 00:01:04;;;;;;;3.15;1.40;;;18.20;66.10;;;;;;5089283;28;20024;-62
2022/05/26 00:03:35;;;;;;;8.30;1.90;;;18.20;66.10;;;;;;5090652;28;20024;-62
2022/05/26 00:06:01;;;;;;;2.30;1.55;;;18.20;66.30;;;;;;5074372;28;20460;-63
2022/05/26 00:08:28;;;;;;;2.80;1.50;;;18.20;66.30;;;;;;5091323;28;20023;-62
2022/05/26 00:10:55;;;;;;;2.15;1.67;;;18.20;66.30;;;;;;5085743;28;20473;-62
2022/05/26 00:13:22;;;;;;;2.03;1.50;;;18.10;66.50;;;;;;5074128;28;20402;-63
2022/05/26 00:15:48;;;;;;;3.58;1.45;;;18.10;66.70;;;;;;5087523;28;20028;-63
2022/05/26 00:18:16;;;;;;;3.42;1.52;;;18.10;66.70;;;;;;5080986;28;20043;-62
2022/05/26 00:20:42;;;;;;;3.60;1.60;;;18.00;66.90;;;;;;5081241;28;20158;-62
2022/05/26 00:23:08;;;;;;;3.42;1.40;;;18.00;67.20;;;;;;5089108;28;20487;-62
2022/05/26 00:25:35;;;;;;;4.88;1.60;;;18.00;67.20;;;;;;5087321;28;20028;-61
2022/05/26 00:28:02;;;;;;;3.88;1.65;;;18.00;67.30;;;;;;5070251;28;20092;-62
2022/05/26 00:30:29;;;;;;;5.03;1.52;;;18.00;67.30;;;;;;5067096;28;20393;-63
2022/05/26 00:32:54;;;;;;;3.05;1.42;;;18.00;67.20;;;;;;5086550;28;20020;-63
2022/05/26 00:35:20;;;;;;;2.13;1.30;;;18.00;67.40;;;;;;5064305;28;20028;-62
2022/05/26 00:37:46;;;;;;;1.50;1.30;;;18.00;67.20;;;;;;5086447;28;20456;-62
2022/05/26 00:40:14;;;;;;;3.30;1.48;;;17.90;67.20;;;;;;5088104;28;20020;-63
2022/05/26 00:42:40;;;;;;;2.25;1.40;;;17.90;67.40;;;;;;5084471;28;20107;-62
2022/05/26 00:45:09;;;;;;;2.10;1.48;;;17.90;67.30;;;;;;5068041;28;20044;-62
2022/05/26 00:47:43;;;;;;;2.63;1.30;;;17.90;67.20;;;;;;5069485;28;20028;-61
2022/05/26 00:50:24;;;;;;;4.05;1.67;;;18.00;67.10;;;;;;5084576;28;20023;-62
2022/05/26 00:52:55;;;;;;;3.95;1.58;;;17.90;67.10;;;;;;5063380;28;20070;-64
2022/05/26 00:55:33;;;;;;;2.22;1.40;;;17.90;67.00;;;;;;5087060;28;20027;-62
2022/05/26 00:58:16;;;;;;;4.25;1.52;;;18.00;66.80;;;;;;5083715;28;20058;-62
2022/05/26 01:00:43;;;;;;;2.47;1.60;;;18.00;66.90;;;;;;5062125;28;20017;-61
2022/05/26 01:03:22;;;;;;;7.30;1.60;;;17.90;66.90;;;;;;5088620;28;20020;-62
2022/05/26 01:05:57;;;;;;;2.35;1.50;;;17.90;67.00;;;;;;5082408;28;20104;-63
2022/05/26 01:08:40;;;;;;;2.30;1.40;;;18.00;67.00;;;;;;5079227;28;20034;-62
2022/05/26 01:11:07;;;;;;;6.20;1.85;;;17.90;67.20;;;;;;5079198;28;20050;-61
2022/05/26 01:13:39;;;;;;;3.72;1.38;;;17.80;67.20;;;;;;5084239;28;20119;-61
2022/05/26 01:16:19;;;;;;;2.40;1.45;;;17.90;67.40;;;;;;5088978;28;20020;-61
2022/05/26 01:19:00;;;;;;;1.63;1.40;;;17.80;67.50;;;;;;5090853;28;20024;-60
2022/05/26 01:21:45;;;;;;;4.00;1.48;;;17.80;67.60;;;;;;5090151;28;20370;-61
2022/05/26 01:24:17;;;;;;;2.05;1.42;;;17.90;67.30;;;;;;5088517;28;20059;-62
2022/05/26 01:27:11;;;;;;;3.15;1.70;;;18.00;67.00;;;;;;5085905;28;20077;-60
2022/05/26 01:29:42;;;;;;;2.60;1.38;;;17.90;67.00;;;;;;5080288;28;20031;-62
2022/05/26 01:32:31;;;;;;;1.90;1.40;;;17.80;67.20;;;;;;5086545;28;20024;-61
2022/05/26 01:35:06;;;;;;;2.53;1.40;;;17.90;67.40;;;;;;5085028;28;20123;-60
2022/05/26 01:37:35;;;;;;;2.40;1.50;;;17.90;67.20;;;;;;5088752;28;20099;-62
2022/05/26 01:40:07;;;;;;;1.88;1.30;;;17.90;67.00;;;;;;5062536;28;20021;-61
2022/05/26 01:43:07;;;;;;;4.45;2.42;;;17.90;67.00;;;;;;5092319;28;20534;-62
2022/05/26 01:45:43;;;;;;;4.65;1.60;;;17.90;67.10;;;;;;5081401;28;20044;-62
2022/05/26 01:48:15;;;;;;;5.85;1.80;;;17.90;66.90;;;;;;5088006;28;20020;-60
2022/05/26 01:50:47;;;;;;;2.88;1.25;;;17.90;66.80;;;;;;5089787;28;20024;-61
2022/05/26 01:53:37;;;;;;;1.43;1.17;;;18.00;67.40;;;;;;5088924;28;20107;-61
2022/05/26 01:56:28;;;;;;;2.97;1.52;;;18.00;66.30;;;;;;5069503;28;20040;-61
2022/05/26 01:59:06;;;;;;;2.72;1.20;;;18.00;66.50;;;;;;5088634;28;20101;-61
2022/05/26 02:01:37;;;;;;;4.38;1.52;;;18.00;66.40;;;;;;5084274;28;20028;-63
2022/05/26 02:04:10;;;;;;;1.67;1.30;;;18.00;66.20;;;;;;5089974;28;20032;-63
2022/05/26 02:06:41;;;;;;;2.90;1.50;;;17.90;66.20;;;;;;5090022;28;20028;-63
2022/05/26 02:09:21;;;;;;;3.10;1.25;;;17.90;66.00;;;;;;5088334;28;20024;-61
2022/05/26 02:12:03;;;;;;;1.42;1.15;;;17.90;66.00;;;;;;5086974;28;20032;-62
2022/05/26 02:14:47;;;;;;;2.38;1.10;;;18.00;65.60;;;;;;5071999;28;20056;-62
2022/05/26 02:17:14;;;;;;;;;;;18.00;65.60;;;;;;5088927;28;20508;-61
2022/05/26 02:20:05;;;;;;;2.85;1.20;;;18.00;65.60;;;;;;5089430;28;19991;-60
2022/05/26 02:22:41;;;;;;;2.45;1.20;;;17.90;65.60;;;;;;5076565;28;20036;-62
2022/05/26 02:25:18;;;;;;;2.38;1.02;;;18.00;65.50;;;;;;5088144;28;20024;-62
2022/05/26 02:27:46;;;;;;;1.20;1.00;;;17.90;65.50;;;;;;5089018;28;20030;-61
2022/05/26 02:30:13;;;;;;;3.45;1.23;;;17.90;65.60;;;;;;5081292;28;20031;-63
2022/05/26 02:32:46;;;;;;;3.10;1.20;;;17.90;65.60;;;;;;5087040;28;20534;-61
2022/05/26 02:35:22;;;;;;;2.33;1.30;;;18.00;65.40;;;;;;5089916;28;20028;-61
2022/05/26 02:37:54;;;;;;;1.75;1.20;;;18.00;65.40;;;;;;5085685;28;20039;-61
2022/05/26 02:40:20;;;;;;;3.42;1.40;;;18.00;65.30;;;;;;5062974;28;20512;-63
2022/05/26 02:42:54;;;;;;;3.08;1.30;;;18.00;65.20;;;;;;5087279;28;20032;-60
2022/05/26 02:45:37;;;;;;;3.42;1.48;;;18.00;65.20;;;;;;5054236;28;20455;-61
2022/05/26 02:48:24;;;;;;;2.10;1.10;;;17.90;65.40;;;;;;5079617;28;20035;-62
2022/05/26 02:51:00;;;;;;;2.28;1.30;;;18.00;65.40;;;;;;5078458;28;20024;-61
2022/05/26 02:53:40;;;;;;;3.42;1.27;;;17.90;65.40;;;;;;5072740;28;20030;-61
2022/05/26 02:56:20;;;;;;;1.92;1.17;;;18.00;65.20;;;;;;5072387;28;20111;-63
2022/05/26 02:58:57;;;;;;;2.03;1.35;;;18.00;65.00;;;;;;5074956;28;21019;-60
2022/05/26 03:01:38;;;;;;;1.77;1.30;;;18.10;65.00;;;;;;5084288;28;20121;-62
2022/05/26 03:04:05;;;;;;;4.45;1.38;;;18.10;64.80;;;;;;5093636;28;20024;-61
2022/05/26 03:06:42;;;;;;;2.40;1.30;;;18.10;64.60;;;;;;5093902;28;20507;-62
2022/05/26 03:09:09;;;;;;;2.20;1.20;;;18.00;64.80;;;;;;5092561;28;20032;-61
2022/05/26 03:11:48;;;;;;;2.58;1.10;;;18.10;64.60;;;;;;5063286;28;20028;-63
2022/05/26 03:14:15;;;;;;;4.10;1.20;;;18.10;64.80;;;;;;5088299;28;20028;-62
2022/05/26 03:16:42;;;;;;;5.57;1.40;;;18.20;64.60;;;;;;5073299;28;20024;-63
2022/05/26 03:19:08;;;;;;;4.82;1.30;;;18.20;64.30;;;;;;5091083;28;20047;-62
2022/05/26 03:21:35;;;;;;;2.60;1.40;;;18.30;64.30;;;;;;5091973;28;20369;-61
2022/05/26 03:24:00;;;;;;;2.78;1.60;;;18.20;64.20;;;;;;5079740;28;20036;-62
2022/05/26 03:26:26;;;;;;;3.13;1.40;;;18.30;64.10;;;;;;5090383;28;20020;-61
2022/05/26 03:28:52;;;;;;;2.42;1.38;;;18.30;64.00;;;;;;5089965;28;20036;-61
2022/05/26 03:31:17;;;;;;;5.80;1.25;;;18.30;64.10;;;;;;5070248;28;20028;-62
2022/05/26 03:42:14;;;;;;;1.55;1.27;;;18.60;63.30;;;;;;5093279;28;20035;-62
2022/05/26 03:44:40;;;;;;;1.65;1.17;;;18.60;63.00;;;;;;5091300;28;20040;-61
2022/05/26 03:47:06;;;;;;;2.33;1.20;;;18.70;62.70;;;;;;5091085;28;20284;-61
2022/05/26 03:49:32;;;;;;;2.70;1.30;;;18.80;62.50;;;;;;5073679;28;20031;-60
2022/05/26 03:51:58;;;;;;;2.40;1.50;;;18.80;62.30;;;;;;5087726;28;20024;-64
2022/05/26 03:54:27;;;;;;;2.53;1.30;;;18.80;62.20;;;;;;5091830;28;20393;-62
2022/05/26 03:56:53;;;;;;;2.50;1.05;;;18.80;62.20;;;;;;5060958;28;20031;-62
2022/05/26 03:59:19;;;;;;;2.63;1.20;;;18.90;62.00;;;;;;5091981;28;20106;-61
2022/05/26 04:01:45;;;;;;;5.07;1.15;;;18.90;61.80;;;;;;5083148;28;20103;-61
2022/05/26 04:04:11;;;;;;;4.13;1.27;;;19.00;61.50;;;;;;5089521;28;20024;-62
2022/05/26 04:06:37;;;;;;;2.10;1.17;;;19.10;61.00;;;;;;5091748;28;20024;-63
2022/05/26 04:09:04;;;;;;;2.60;1.20;;;19.10;60.90;;;;;;5090243;28;20499;-64
2022/05/26 04:11:30;;;;;;;2.92;1.20;;;19.20;60.80;;;;;;5090527;28;20056;-61
2022/05/26 04:13:56;;;;;;;1.95;1.20;;;19.10;60.70;;;;;;5065269;28;20117;-62
2022/05/26 04:16:23;;;;;;;1.40;0.90;;;19.10;60.60;;;;;;5091300;28;20059;-61
2022/05/26 04:18:51;;;;;;;2.72;0.90;;;19.20;60.30;;;;;;5089703;28;20107;-60
2022/05/26 04:21:16;;;;;;;3.65;0.85;;;19.20;60.20;;;;;;5091187;28;20028;-61
2022/05/26 04:23:42;;;;;;;2.60;0.90;;;19.20;60.10;;;;;;5090415;28;20031;-63
2022/05/26 04:26:09;;;;;;;2.30;0.90;;;19.20;60.00;;;;;;5089757;28;20131;-62
2022/05/26 04:28:36;;;;;;;1.80;0.90;;;19.20;59.70;;;;;;5069157;28;20031;-62
2022/05/26 04:31:02;;;;;;;1.88;1.00;;;19.30;59.70;;;;;;5084736;28;20031;-62
2022/05/26 04:33:29;;;;;;;1.58;0.95;;;19.30;59.50;;;;;;5069016;28;20105;-62
2022/05/26 04:35:56;;;;;;;3.75;1.20;;;19.20;59.30;;;;;;5089593;28;20024;-61
2022/05/26 04:38:22;;;;;;;2.95;1.10;;;19.30;59.30;;;;;;5082014;28;20031;-62
2022/05/26 04:41:02;;;;;;;1.42;0.90;;;19.30;59.00;;;;;;5086842;28;20043;-61
2022/05/26 04:43:30;;;;;;;4.55;1.00;;;19.30;59.60;;;;;;5068190;28;20028;-62
2022/05/26 04:45:57;;;;;;;2.10;0.90;;;19.30;59.00;;;;;;5086422;28;20028;-61
2022/05/26 04:48:23;;;;;;;4.55;1.58;;;19.40;58.90;;;;;;5069055;28;20056;-62
2022/05/26 04:50:50;;;;;;;1.20;0.98;;;19.60;58.70;;;;;;5090588;28;20039;-65
2022/05/26 04:53:16;;;;;;;11.05;1.30;;;19.70;58.20;;;;;;5080399;28;20039;-62
2022/05/26 04:55:42;;;;;;;1.58;1.13;;;19.80;57.90;;;;;;5086307;28;20040;-62
2022/05/26 04:58:08;;;;;;;5.72;1.55;;;19.80;58.00;;;;;;5084175;28;20081;-63
2022/05/26 05:00:34;;;;;;;4.68;1.58;;;19.80;58.40;;;;;;5086672;28;20028;-63
2022/05/26 05:03:00;;;;;;;2.85;1.80;;;19.90;58.90;;;;;;5066169;28;20012;-61
2022/05/26 05:05:25;;;;;;;5.18;1.50;;;19.80;59.00;;;;;;5061999;28;20431;-61
2022/05/26 05:07:51;;;;;;;1.40;1.10;;;19.80;59.40;;;;;;5087656;28;20557;-63
2022/05/26 05:10:17;;;;;;;4.60;1.83;;;19.90;59.30;;;;;;5079499;28;20032;-61
2022/05/26 05:12:43;;;;;;;3.35;1.00;;;19.90;59.30;;;;;;5082044;28;20028;-61
2022/05/26 05:15:16;;;;;;;3.28;1.27;;;19.90;58.40;;;;;;5085720;28;20327;-61
2022/05/26 05:17:42;;;;;;;4.23;0.93;;;20.10;58.40;;;;;;5084861;28;20038;-61
2022/05/26 05:20:08;;;;;;;3.30;1.00;;;20.20;57.70;;;;;;5083887;28;20770;-61
2022/05/26 05:22:44;;;;;;;3.88;1.13;;;20.10;56.70;;;;;;5087121;28;20112;-62
2022/05/26 05:25:33;;;;;;;2.72;0.90;;;20.20;56.70;;;;;;5087539;28;20035;-61
2022/05/26 05:28:03;;;;;;;3.03;0.90;;;20.30;56.80;;;;;;5082929;28;20553;-60
2022/05/26 05:30:33;;;;;;;1.23;0.90;;;20.30;56.10;;;;;;5084565;28;20028;-61
2022/05/26 05:33:08;;;;;;;2.35;1.10;;;20.30;56.10;;;;;;5084129;28;20163;-60
2022/05/26 05:35:50;;;;;;;2.25;0.70;;;20.40;56.00;;;;;;5084069;28;20024;-60
2022/05/26 05:38:17;;;;;;;2.78;0.80;;;20.40;55.50;;;;;;5083094;28;20256;-61
2022/05/26 05:40:43;;;;;;;1.00;0.90;;;20.40;55.60;;;;;;5068807;28;20048;-63
2022/05/26 05:43:09;;;;;;;2.72;0.90;;;20.60;55.30;;;;;;5084676;28;20071;-61
2022/05/26 05:45:35;;;;;;;2.17;0.70;;;20.60;55.10;;;;;;5087271;28;20055;-62
2022/05/26 05:48:01;;;;;;;7.10;1.40;;;20.70;55.20;;;;;;5080699;28;20048;-60
2022/05/26 05:50:27;;;;;;;1.00;0.90;;;20.70;54.70;;;;;;5084507;28;20452;-61
2022/05/26 05:52:53;;;;;;;1.35;0.85;;;20.80;55.20;;;;;;5052546;28;20048;-61
2022/05/26 05:55:19;;;;;;;1.20;0.85;;;20.90;54.60;;;;;;5067769;28;20042;-61
2022/05/26 05:57:44;;;;;;;0.80;0.70;;;21.00;54.20;;;;;;5085449;28;20078;-62
2022/05/26 06:00:11;;;;;;;1.52;0.90;;;21.10;53.90;;;;;;5087003;28;20366;-61
2022/05/26 06:02:36;;;;;;;1.20;0.70;;;21.10;53.80;;;;;;5088463;28;20114;-62
2022/05/26 06:05:04;;;;;;;1.65;0.80;;;21.30;53.40;;;;;;5083078;28;20483;-62
2022/05/26 06:07:30;;;;;;;0.85;0.80;;;21.30;53.20;;;;;;5086114;28;20084;-61
2022/05/26 06:09:56;;;;;;;1.38;0.80;;;21.40;52.70;;;;;;5084885;28;20036;-61
2022/05/26 06:12:22;;;;;;;1.15;0.70;;;21.50;52.60;;;;;;5085325;28;20155;-61
2022/05/26 06:14:48;;;;;;;3.08;1.00;;;21.50;52.40;;;;;;5062175;28;20508;-61
2022/05/26 06:17:14;;;;;;;3.83;0.93;;;21.50;51.80;;;;;;5066418;28;20032;-61
2022/05/26 06:19:41;;;;;;;1.13;0.80;;;21.40;52.10;;;;;;5066324;28;20143;-62
2022/05/26 06:22:14;;;;;;;4.22;0.70;;;21.60;51.90;;;;;;5081027;28;20481;-61
2022/05/26 06:24:40;;;;;;;;;;;21.70;51.70;;;;;;5063766;28;20028;-62
2022/05/26 06:29:53;;;;;;;2.50;0.90;;;22.00;51.10;;;;;;5082759;28;20039;-63
2022/05/26 06:37:50;;;;;;;1.52;0.80;;;22.10;50.80;;;;;;5078444;28;20035;-63
2022/05/26 06:40:16;;;;;;;2.30;0.90;;;22.20;50.60;;;;;;5072627;28;20031;-63
2022/05/26 06:42:44;;;;;;;1.83;0.90;;;22.40;50.30;;;;;;5087905;28;20070;-62
2022/05/26 06:45:11;;;;;;;2.45;0.80;;;22.50;50.20;;;;;;5081487;28;20040;-62
2022/05/26 06:47:37;;;;;;;2.97;1.35;;;22.80;49.60;;;;;;5073101;28;20021;-62
2022/05/26 06:50:03;;;;;;;1.83;1.40;;;23.50;49.60;;;;;;5084818;28;20137;-60
2022/05/26 06:52:29;;;;;;;1.73;1.45;;;26.50;46.20;;;;;;5091561;28;20028;-62
2022/05/26 06:54:56;;;;;;;2.45;1.30;;;30.20;39.10;;;;;;5079258;28;20378;-64
2022/05/26 06:57:22;;;;;;;2.40;1.55;;;32.90;35.00;;;;;;5089237;28;20091;-63
2022/05/26 06:59:47;;;;;;;2.40;1.38;;;34.90;31.70;;;;;;5073263;28;20380;-63
2022/05/26 07:02:14;;;;;;;2.85;1.30;;;36.80;30.00;;;;;;5081112;28;20027;-61
2022/05/26 07:04:42;;;;;;;2.25;1.50;;;38.00;28.70;;;;;;5077602;28;20107;-62
2022/05/26 07:07:08;;;;;;;3.35;1.20;;;39.50;27.80;;;;;;5083219;28;20104;-62
2022/05/26 07:09:34;;;;;;;3.45;1.40;;;40.90;26.80;;;;;;5085845;28;20094;-62
2022/05/26 07:12:00;;;;;;;3.95;1.00;;;41.00;25.90;;;;;;5052912;28;20056;-60
2022/05/26 07:14:26;;;;;;;3.85;1.30;;;39.30;26.50;;;;;;5085113;28;20059;-61
2022/05/26 07:16:52;;;;;;;2.13;1.23;;;37.30;27.40;;;;;;5082367;28;20029;-61
2022/05/26 07:19:18;;;;;;;2.40;1.30;;;36.20;27.90;;;;;;5063476;28;20066;-61
2022/05/26 07:21:49;;;;;;;2.78;1.15;;;36.70;28.30;;;;;;5089485;28;20025;-62
2022/05/26 07:24:20;;;;;;;5.00;1.58;;;39.20;27.10;;;;;;5068863;28;20025;-60
2022/05/26 07:26:47;;;;;;;2.67;1.10;;;41.00;25.70;;;;;;5063500;28;20024;-62
2022/05/26 07:29:15;;;;;;;1.73;1.35;;;42.40;24.90;;;;;;5085471;28;20127;-61
2022/05/26 07:31:41;;;;;;;1.77;1.10;;;43.50;24.70;;;;;;5089485;28;20507;-61
2022/05/26 07:34:07;;;;;;;2.63;1.17;;;44.40;23.70;;;;;;5084701;28;20042;-60
2022/05/26 07:42:06;;;;;;;1.65;1.50;;;43.60;24.20;;;;;;5075025;28;20031;-62
2022/05/26 07:44:37;;;;;;;2.35;1.20;;;44.80;23.40;;;;;;5092562;28;20493;-61
2022/05/26 07:47:05;;;;;;;2.40;1.52;;;44.90;22.90;;;;;;5089904;28;20531;-60
2022/05/26 07:49:37;;;;;;;1.90;1.50;;;44.90;23.10;;;;;;5093281;28;20024;-62
2022/05/26 07:52:08;;;;;;;3.20;1.50;;;45.40;22.80;;;;;;5085872;28;20024;-64
2022/05/26 07:54:34;;;;;;;2.20;1.50;;;45.50;22.70;;;;;;5068612;28;20141;-62
2022/05/26 07:57:01;;;;;;;3.50;1.60;;;45.40;22.40;;;;;;5087132;28;20063;-60
2022/05/26 07:59:28;;;;;;;1.50;1.40;;;45.50;22.50;;;;;;5060745;28;20020;-62
2022/05/26 08:01:53;;;;;;;3.30;1.73;;;46.20;22.30;;;;;;5081285;28;20082;-62
2022/05/26 08:04:20;;;;;;;7.82;1.02;;;46.90;22.20;;;;;;5089603;28;20485;-62
2022/05/26 08:06:47;;;;;;;8.18;1.10;;;46.70;22.00;;;;;;5090634;28;20520;-62
2022/05/26 08:09:14;;;;;;;3.42;0.73;;;44.70;22.30;;;;;;5087870;28;20058;-62
2022/05/26 08:11:40;;;;;;;5.47;1.30;;;42.90;23.00;;;;;;5087714;28;20024;-61
2022/05/26 08:14:06;;;;;;;3.30;1.63;;;41.50;23.60;;;;;;5064556;28;20038;-60
2022/05/26 08:16:32;;;;;;;2.30;1.40;;;40.60;24.50;;;;;;5065803;28;20058;-62
2022/05/26 08:18:57;;;;;;;1.58;0.70;;;41.90;24.10;;;;;;5061987;28;20059;-61
2022/05/26 08:21:23;;;;;;;1.20;0.63;;;42.40;23.30;;;;;;5066462;28;20479;-61
2022/05/26 08:23:49;;;;;;;2.45;0.80;;;42.00;23.60;;;;;;5083870;28;20028;-62
2022/05/26 08:26:15;;;;;;;7.35;2.15;;;41.20;23.70;;;;;;5079728;28;20016;-62
2022/05/26 08:28:42;;;;;;;5.25;1.67;;;40.90;23.80;;;;;;5083152;28;20043;-63
2022/05/26 08:31:10;;;;;;;2.15;1.70;;;41.80;23.40;;;;;;5089695;28;20024;-60
2022/05/26 08:33:36;;;;;;;2.10;0.60;;;43.00;23.10;;;;;;5067275;28;20060;-60
2022/05/26 08:36:04;;;;;;;1.77;1.58;;;43.40;22.50;;;;;;5072330;28;20109;-60
2022/05/26 08:38:30;;;;;;;7.43;2.00;;;41.40;23.50;;;;;;5086384;28;20505;-61
2022/05/26 08:40:56;;;;;;;2.25;1.80;;;41.40;23.60;;;;;;5090711;28;20103;-60
2022/05/26 08:43:29;;;;;;;2.53;1.73;;;42.40;23.30;;;;;;5089411;28;20050;-61
2022/05/26 08:45:55;;;;;;;;;;;42.90;23.10;;;;;;5080280;28;20063;-61
2022/05/26 08:48:52;;;;;;;4.88;1.90;;;44.70;22.90;;;;;;5082452;28;20230;-60
2022/05/26 08:51:33;;;;;;;3.85;2.10;;;43.90;22.40;;;;;;5059845;28;20489;-61
2022/05/26 08:53:59;;;;;;;3.15;2.40;;;45.00;22.50;;;;;;5087602;28;20043;-60
2022/05/26 08:56:27;;;;;;;3.25;1.80;;;46.40;21.80;;;;;;5084977;28;20043;-60
2022/05/26 08:59:00;;;;;;;4.50;1.42;;;46.00;21.80;;;;;;5081454;28;20046;-60
2022/05/26 09:01:31;;;;;;;1.55;1.40;;;46.70;21.70;;;;;;5077614;28;20084;-60
2022/05/26 09:03:57;;;;;;;2.67;1.50;;;47.40;21.50;;;;;;5087258;28;20099;-61
2022/05/26 09:06:23;;;;;;;3.55;1.40;;;46.70;21.20;;;;;;5063612;28;20566;-60
2022/05/26 09:14:25;;;;;;;6.38;1.30;;;45.20;21.50;;;;;;5086784;28;20108;-60
2022/05/26 09:17:03;;;;;;;4.35;1.00;;;42.80;22.00;;;;;;5069462;28;20048;-59
2022/05/26 09:19:46;;;;;;;5.85;0.95;;;39.70;23.60;;;;;;5060242;28;20109;-60
2022/05/26 09:22:40;;;;;;;5.38;1.58;;;37.00;25.30;;;;;;5075257;28;20015;-61
2022/05/26 09:25:09;;;;;;;;;;;34.40;27.20;;;;;;5076838;28;20036;-60
2022/05/26 09:27:37;;;;;;;3.30;1.08;;;32.80;28.20;;;;;;5077926;28;19958;-60
2022/05/26 09:30:41;;;;;;;3.83;1.00;;;31.60;29.80;;;;;;5081704;28;20028;-61
2022/05/26 09:33:17;;;;;;;;;;;30.80;30.70;;;;;;4997401;28;20210;-61
2022/05/26 09:35:43;;;;;;;3.42;1.10;;;30.20;31.00;;;;;;4973536;28;19909;-60
2022/05/26 09:38:16;;;;;;;4.90;1.52;;;29.30;31.90;;;;;;4999545;28;20165;-59
2022/05/26 09:40:46;;;;;;;;;;;29.00;32.50;;;;;;5005610;28;20032;-60
2022/05/26 09:43:17;;;;;;;3.75;1.10;;;28.80;32.90;;;;;;5012741;28;20003;-59
2022/05/26 09:45:48;;;;;;;4.20;1.15;;;28.40;33.30;;;;;;4985868;28;20042;-62
2022/05/26 09:48:33;;;;;;;3.60;1.27;;;28.20;33.70;;;;;;5004804;28;20030;-59
2022/05/26 09:51:24;;;;;;;2.97;1.00;;;28.00;34.20;;;;;;5003472;28;20121;-60
2022/05/26 09:53:52;;;;;;;4.13;1.30;;;27.90;34.60;;;;;;4977638;28;20044;-62
2022/05/26 09:56:29;;;;;;;1.80;1.10;;;27.80;34.90;;;;;;5000893;28;20069;-60
2022/05/26 09:58:55;;;;;;;3.42;1.30;;;27.80;34.90;;;;;;5006777;28;20038;-59
2022/05/26 10:01:21;;;;;;;3.38;1.30;;;27.90;34.80;;;;;;4998836;28;20033;-60
2022/05/26 10:03:47;;;;;;;8.18;1.45;;;28.10;34.70;;;;;;5034025;28;20028;-61
2022/05/26 10:06:37;;;;;;;4.35;1.35;;;28.00;35.00;;;;;;5078785;28;20031;-60
2022/05/26 10:09:14;;;;;;;5.13;1.35;;;27.70;35.70;;;;;;5077474;28;20044;-59
2022/05/26 10:11:40;;;;;;;2.55;1.20;;;27.40;36.10;;;;;;5077989;28;20111;-59
2022/05/26 10:14:33;;;;;;;2.13;1.20;;;27.40;36.20;;;;;;5081343;28;20476;-62
2022/05/26 10:17:19;;;;;;;4.00;1.27;;;27.20;36.50;;;;;;5077680;28;20021;-60
2022/05/26 10:20:10;;;;;;;2.75;1.20;;;27.00;36.50;;;;;;5080453;28;20094;-61
2022/05/26 10:22:47;;;;;;;5.30;1.42;;;26.80;36.60;;;;;;5076743;28;20274;-61
2022/05/26 10:25:37;;;;;;;3.25;1.15;;;26.60;36.90;;;;;;5059221;28;20385;-61
2022/05/26 10:28:21;;;;;;;3.80;1.33;;;26.70;37.20;;;;;;5047972;28;20035;-61
2022/05/26 10:31:18;;;;;;;6.20;1.33;;;26.90;36.60;;;;;;5067793;28;20219;-63
2022/05/26 10:34:09;;;;;;;1.88;1.10;;;27.00;36.60;;;;;;5062770;28;20028;-62
2022/05/26 10:36:41;;;;;;;5.40;1.27;;;26.90;36.30;;;;;;5069106;28;20255;-61
2022/05/26 10:39:20;;;;;;;3.08;1.23;;;27.00;36.40;;;;;;5082468;28;20028;-62
2022/05/26 10:41:52;;;;;;;3.83;1.33;;;27.10;36.50;;;;;;5077231;28;20073;-61
2022/05/26 10:44:21;;;;;;;5.07;1.48;;;27.10;36.30;;;;;;5078212;28;20155;-60
2022/05/26 10:47:04;;;;;;;3.58;1.30;;;27.10;35.90;;;;;;5067260;28;20109;-60
2022/05/26 10:49:56;;;;;;;4.32;1.25;;;26.80;34.90;;;;;;5087617;28;20059;-63
2022/05/26 10:52:30;;;;;;;4.13;1.10;;;26.70;34.80;;;;;;5040533;28;20041;-64
2022/05/26 10:55:00;;;;;;;4.32;1.02;;;26.70;34.60;;;;;;5071610;28;20028;-63
2022/05/26 10:58:03;;;;;;;3.25;1.30;;;26.70;34.40;;;;;;5069545;28;20444;-61
2022/05/26 11:00:30;;;;;;;4.70;1.20;;;26.80;34.30;;;;;;5080013;28;20032;-62
2022/05/26 11:03:20;;;;;;;4.35;1.23;;;26.90;34.10;;;;;;5078172;28;20051;-60
2022/05/26 11:05:57;;;;;;;3.80;1.20;;;27.00;34.10;;;;;;5063300;28;20020;-63
2022/05/26 11:08:38;;;;;;;3.15;1.00;;;27.00;33.80;;;;;;5056161;28;20028;-64
2022/05/26 11:11:06;;;;;;;3.40;1.60;;;27.20;33.90;;;;;;5079381;28;20149;-65
2022/05/26 11:14:05;;;;;;;3.15;1.20;;;27.30;33.80;;;;;;5082924;28;20034;-64
2022/05/26 11:19:38;;;;;;;6.50;1.48;;;27.30;33.00;;;;;;5078911;28;20175;-65
2022/05/26 11:22:10;;;;;;;2.85;1.10;;;27.30;32.90;;;;;;5083563;28;20073;-65
2022/05/26 11:24:35;;;;;;;4.55;1.17;;;27.30;33.20;;;;;;5061895;28;20107;-62
2022/05/26 11:27:35;;;;;;;3.08;1.45;;;27.30;33.40;;;;;;5083863;28;20112;-64
2022/05/26 11:36:07;;;;;;;3.10;1.00;;;27.20;33.00;;;;;;5039510;28;20082;-65
2022/05/26 11:38:38;;;;;;;4.20;1.20;;;26.80;33.00;;;;;;5081313;28;20090;-63
2022/05/26 11:41:08;;;;;;;2.78;1.10;;;27.00;33.00;;;;;;5073863;28;20040;-65
2022/05/26 11:43:57;;;;;;;6.72;1.58;;;27.00;32.80;;;;;;5054802;28;20507;-64
2022/05/26 11:46:42;;;;;;;6.57;1.30;;;27.20;32.70;;;;;;5063274;28;20480;-65
2022/05/26 11:49:10;;;;;;;3.80;1.08;;;27.30;32.70;;;;;;5081950;28;20028;-65
2022/05/26 11:51:41;;;;;;;5.53;1.42;;;27.30;33.00;;;;;;5078760;28;20153;-62
2022/05/26 11:54:10;;;;;;;4.00;1.20;;;27.30;33.00;;;;;;5076221;28;20093;-65
2022/05/26 11:56:42;;;;;;;3.05;1.20;;;27.40;33.30;;;;;;5079831;28;20123;-64
2022/05/26 11:59:32;;;;;;;3.13;0.90;;;27.30;33.40;;;;;;5088438;28;20028;-63
2022/05/26 12:02:01;;;;;;;4.53;1.23;;;27.40;33.40;;;;;;5086243;28;20023;-65
2022/05/26 12:04:32;;;;;;;4.88;1.30;;;27.40;33.20;;;;;;5086664;28;20024;-62
2022/05/26 12:07:23;;;;;;;4.00;1.38;;;27.50;33.10;;;;;;5071595;28;20086;-67
2022/05/26 12:09:57;;;;;;;3.55;1.20;;;27.80;32.70;;;;;;5063018;28;20024;-64
2022/05/26 12:12:23;;;;;;;3.03;1.33;;;27.80;32.40;;;;;;5083688;28;20016;-65
2022/05/26 12:14:58;;;;;;;3.15;1.50;;;27.70;32.60;;;;;;5089275;28;20491;-63
2022/05/26 12:17:51;;;;;;;4.63;1.30;;;27.80;32.70;;;;;;5085574;28;20028;-67
2022/05/26 12:20:17;;;;;;;6.33;1.80;;;28.00;32.50;;;;;;5066224;28;20097;-64
2022/05/26 12:22:51;;;;;;;2.97;1.58;;;28.10;32.50;;;;;;5086274;28;20274;-64
2022/05/26 12:25:29;;;;;;;8.60;1.50;;;28.50;32.10;;;;;;5081904;28;20533;-64
2022/05/26 12:28:22;;;;;;;3.70;1.27;;;28.80;31.90;;;;;;5082980;28;20020;-65
2022/05/26 12:30:49;;;;;;;4.35;1.50;;;28.90;32.10;;;;;;5082719;28;20052;-65
2022/05/26 12:33:20;;;;;;;7.60;1.40;;;29.00;31.90;;;;;;5084664;28;20036;-65
2022/05/26 12:36:13;;;;;;;2.90;1.10;;;29.20;31.60;;;;;;5064692;28;20020;-64
2022/05/26 12:39:00;;;;;;;6.07;1.48;;;29.30;31.60;;;;;;5080635;28;20753;-63
2022/05/26 12:42:04;;;;;;;3.72;1.38;;;29.30;31.70;;;;;;5083462;28;20043;-64
2022/05/26 12:45:07;;;;;;;6.88;1.60;;;29.20;32.10;;;;;;5084167;28;20047;-65
2022/05/26 12:47:51;;;;;;;4.80;1.25;;;29.00;32.10;;;;;;5083111;28;20021;-63
2022/05/26 12:50:20;;;;;;;8.43;1.17;;;28.80;32.60;;;;;;5083205;28;20116;-63
2022/05/26 12:52:55;;;;;;;1.95;1.08;;;28.60;32.80;;;;;;5083414;28;20105;-65
2022/05/26 12:55:37;;;;;;;3.78;1.10;;;28.70;32.90;;;;;;5084950;28;20050;-60
2022/05/26 12:58:05;;;;;;;5.28;1.40;;;28.90;32.70;;;;;;5083823;28;20020;-64
2022/05/26 13:00:37;;;;;;;2.95;1.20;;;29.00;32.70;;;;;;5079436;28;20024;-64
2022/05/26 13:03:24;;;;;;;3.67;1.30;;;28.80;32.20;;;;;;5065892;28;20024;-64
2022/05/26 13:06:01;;;;;;;5.05;1.25;;;28.70;32.30;;;;;;5090147;28;20016;-64
2022/05/26 13:08:31;;;;;;;2.67;1.00;;;28.50;32.60;;;;;;5058408;28;20040;-65
2022/05/26 13:10:59;;;;;;;4.80;1.40;;;28.50;32.40;;;;;;5081487;28;20056;-65
2022/05/26 13:13:36;;;;;;;4.30;1.40;;;28.60;32.30;;;;;;5083612;28;20021;-61
2022/05/26 13:16:29;;;;;;;5.30;1.20;;;28.90;31.90;;;;;;5083601;28;20024;-63
2022/05/26 13:19:04;;;;;;;2.90;1.25;;;28.80;31.60;;;;;;5081180;28;20028;-64
2022/05/26 13:21:30;;;;;;;2.63;1.10;;;28.90;31.80;;;;;;5086334;28;20021;-64
2022/05/26 13:23:56;;;;;;;2.15;1.05;;;29.10;31.50;;;;;;5053629;28;20032;-65
2022/05/26 13:26:23;;;;;;;4.65;1.48;;;29.10;31.60;;;;;;5084733;28;20024;-62
2022/05/26 13:29:00;;;;;;;3.90;1.30;;;29.10;31.30;;;;;;5082898;28;20032;-65
2022/05/26 13:34:15;;;;;;;3.45;1.15;;;29.10;31.20;;;;;;5075086;28;20035;-64
2022/05/26 13:36:47;;;;;;;2.75;1.10;;;28.80;31.20;;;;;;5078505;28;20021;-64
2022/05/26 13:39:16;;;;;;;3.88;1.20;;;28.70;31.80;;;;;;5084780;28;20024;-65
2022/05/26 13:41:45;;;;;;;6.38;1.42;;;28.70;31.70;;;;;;5083229;28;20217;-64
2022/05/26 13:44:30;;;;;;;3.20;1.40;;;28.90;31.80;;;;;;5059748;28;20085;-65
2022/05/26 13:46:58;;;;;;;4.32;1.48;;;29.50;31.50;;;;;;5059795;28;20024;-64
2022/05/26 13:49:36;;;;;;;4.57;1.40;;;29.60;31.00;;;;;;5080976;28;20043;-61
2022/05/26 13:52:24;;;;;;;6.00;1.23;;;29.50;31.20;;;;;;5056512;28;20034;-64
2022/05/26 13:55:00;;;;;;;4.07;1.50;;;29.40;31.30;;;;;;5058264;28;20461;-64